Time;durP1;ratioP1;P1;durP2;ratioP2;P2;SDS_P1;SDS_P2;PMS_P1;PMS_P2;Temp;Humidity;BMP_temperature;BMP_pressure;BME280_temperature;BME280_humidity;BME280_pressure;Samples;Min_cycle;Max_cycle;Signal;HPM_P1;HPM_P2
2021/10/05 00:01:30;;;;;;;6.43;2.75;;;;;;;11.94;92.40;101107.69;4927435;28;20054;-71
2021/10/05 00:03:58;;;;;;;10.30;3.40;;;;;;;11.87;92.57;101111.44;4925365;28;20055;-71
2021/10/05 00:06:27;;;;;;;8.10;3.17;;;;;;;11.86;92.37;101096.31;4925642;28;20078;-72
2021/10/05 00:08:55;;;;;;;7.63;2.95;;;;;;;11.85;92.53;101091.91;4919354;28;20675;-71
2021/10/05 00:11:23;;;;;;;5.93;2.47;;;;;;;11.76;92.98;101100.22;4919381;28;20199;-67
2021/10/05 00:13:51;;;;;;;7.00;2.40;;;;;;;11.73;93.01;101090.53;4919502;28;20746;-67
2021/10/05 00:16:19;;;;;;;8.05;2.60;;;;;;;11.68;93.01;101100.50;4923142;28;20047;-67
2021/10/05 00:18:49;;;;;;;12.93;2.75;;;;;;;11.72;92.53;101080.75;4926188;28;20070;-67
2021/10/05 00:21:18;;;;;;;8.43;2.83;;;;;;;11.67;92.81;101074.69;4922270;28;20061;-72
2021/10/05 00:23:48;;;;;;;11.95;2.58;;;;;;;11.66;92.58;101069.38;4920223;28;20055;-71
2021/10/05 00:26:15;;;;;;;11.20;2.95;;;;;;;11.72;91.86;101072.72;4922994;28;20043;-70
2021/10/05 00:28:43;;;;;;;16.05;3.15;;;;;;;11.69;91.90;101066.59;4917431;28;20058;-71
2021/10/05 00:31:11;;;;;;;5.78;2.53;;;;;;;11.63;92.05;101065.03;4922726;28;20055;-71
2021/10/05 00:33:39;;;;;;;5.93;2.63;;;;;;;11.65;91.75;101056.97;4919376;28;20067;-71
2021/10/05 00:36:08;;;;;;;10.45;3.15;;;;;;;11.67;91.47;101060.44;4924200;28;20107;-71
2021/10/05 00:38:36;;;;;;;5.40;2.35;;;;;;;11.66;91.45;101054.19;4921385;28;20051;-71
2021/10/05 00:41:05;;;;;;;4.88;2.30;;;;;;;11.68;91.15;101059.50;4918602;28;20059;-71
2021/10/05 00:43:34;;;;;;;6.05;2.08;;;;;;;11.65;91.13;101055.16;4922451;28;20616;-71
2021/10/05 00:46:02;;;;;;;5.30;2.28;;;;;;;11.65;91.07;101056.97;4922935;28;20138;-71
2021/10/05 00:48:30;;;;;;;4.70;2.50;;;;;;;11.53;91.36;101056.41;4922154;28;20146;-71
2021/10/05 00:50:58;;;;;;;7.20;2.50;;;;;;;11.54;91.75;101054.63;4920593;28;20075;-71
2021/10/05 00:53:26;;;;;;;4.70;2.03;;;;;;;11.51;91.66;101060.94;4914796;28;20293;-71
2021/10/05 00:55:55;;;;;;;7.88;2.35;;;;;;;11.50;91.46;101051.16;4920677;28;20059;-71
2021/10/05 00:58:24;;;;;;;6.50;2.17;;;;;;;11.48;91.67;101055.69;4925657;28;20150;-70
2021/10/05 01:00:52;;;;;;;5.40;2.10;;;;;;;11.49;91.19;101062.81;4917891;28;20580;-71
2021/10/05 01:03:20;;;;;;;6.82;2.10;;;;;;;11.60;90.49;101054.44;4925387;28;20051;-70
2021/10/05 01:05:48;;;;;;;6.45;2.40;;;;;;;11.55;90.73;101051.03;4919772;28;20047;-70
2021/10/05 01:08:20;;;;;;;5.05;2.10;;;;;;;11.54;90.58;101033.25;4920205;28;20610;-70
2021/10/05 01:10:49;;;;;;;7.35;2.80;;;;;;;11.50;90.72;101035.13;4921445;28;20055;-70
2021/10/05 01:13:17;;;;;;;5.85;2.45;;;;;;;11.46;90.75;101025.50;4919742;28;20420;-70
2021/10/05 01:15:46;;;;;;;5.63;2.45;;;;;;;11.44;90.74;101015.75;4924927;28;20666;-70
2021/10/05 01:18:14;;;;;;;5.15;2.08;;;;;;;11.41;91.08;101019.41;4920352;28;20052;-70
2021/10/05 01:20:54;;;;;;;7.05;2.20;;;;;;;11.33;91.18;101008.09;4918453;28;20519;-70
2021/10/05 01:23:24;;;;;;;7.35;2.22;;;;;;;11.33;91.63;101016.13;4921688;28;20059;-71
2021/10/05 01:25:52;;;;;;;6.75;2.30;;;;;;;11.34;91.46;101007.16;4921273;28;20237;-70
2021/10/05 01:28:22;;;;;;;5.22;2.40;;;;;;;11.38;91.32;101011.50;4923838;28;20062;-70
2021/10/05 01:30:51;;;;;;;6.57;2.17;;;;;;;11.46;90.63;101008.56;4921303;28;20111;-70
2021/10/05 01:33:23;;;;;;;6.78;2.60;;;;;;;11.38;90.98;101011.50;4917883;28;20583;-70
2021/10/05 01:35:53;;;;;;;3.67;1.80;;;;;;;11.35;91.03;101004.44;4917819;28;20227;-70
2021/10/05 01:38:21;;;;;;;4.15;2.40;;;;;;;11.36;90.55;100992.84;4921747;28;20054;-71
2021/10/05 01:40:50;;;;;;;3.65;1.90;;;;;;;11.35;90.96;100991.09;4923388;28;20626;-70
2021/10/05 01:43:18;;;;;;;6.30;2.00;;;;;;;11.33;91.02;101000.94;4927098;28;20059;-70
2021/10/05 01:45:48;;;;;;;4.60;2.25;;;;;;;11.40;90.63;101002.50;4920072;28;20055;-70
2021/10/05 01:48:17;;;;;;;3.85;1.70;;;;;;;11.38;90.57;101001.69;4920667;28;20126;-70
2021/10/05 01:50:45;;;;;;;5.45;2.20;;;;;;;11.32;90.82;101001.00;4915511;28;20102;-70
2021/10/05 01:53:14;;;;;;;5.05;2.20;;;;;;;11.32;90.95;100993.00;4915364;28;20166;-70
2021/10/05 01:56:06;;;;;;;5.15;1.85;;;;;;;11.27;91.36;100992.25;4921584;28;20098;-70
2021/10/05 01:58:35;;;;;;;7.55;1.98;;;;;;;11.32;90.64;100990.31;4923739;28;20138;-70
2021/10/05 02:01:03;;;;;;;5.38;2.00;;;;;;;11.30;90.90;100982.34;4920751;28;20468;-71
2021/10/05 02:03:31;;;;;;;9.25;2.45;;;;;;;11.30;90.73;100977.00;4921240;28;20235;-71
2021/10/05 02:05:59;;;;;;;6.05;2.10;;;;;;;11.36;90.29;100970.59;4922039;28;20154;-70
2021/10/05 02:08:28;;;;;;;6.78;2.38;;;;;;;11.36;90.33;100952.78;4915573;28;20055;-70
2021/10/05 02:10:56;;;;;;;5.93;2.22;;;;;;;11.30;90.48;100952.97;4925543;28;20141;-70
2021/10/05 02:13:24;;;;;;;4.13;2.00;;;;;;;11.39;89.89;100949.09;4919303;28;20055;-70
2021/10/05 02:15:52;;;;;;;7.72;2.03;;;;;;;11.38;89.88;100940.22;4921252;28;20495;-66
2021/10/05 02:18:20;;;;;;;4.20;1.95;;;;;;;11.34;90.29;100932.34;4920372;28;20057;-66
2021/10/05 02:20:48;;;;;;;7.13;2.10;;;;;;;11.34;90.11;100930.59;4921374;28;20554;-66
2021/10/05 02:23:16;;;;;;;5.40;2.20;;;;;;;11.44;89.31;100931.16;4919905;28;20142;-66
2021/10/05 02:25:45;;;;;;;9.95;2.30;;;;;;;11.43;89.73;100925.88;4927521;28;20394;-66
2021/10/05 02:28:13;;;;;;;7.85;2.58;;;;;;;11.40;89.86;100925.00;4926193;28;20056;-66
2021/10/05 02:30:41;;;;;;;4.30;1.77;;;;;;;11.40;89.90;100922.34;4923366;28;20150;-66
2021/10/05 02:33:09;;;;;;;4.53;1.92;;;;;;;11.40;89.93;100914.31;4922756;28;20621;-66
2021/10/05 02:35:37;;;;;;;4.35;1.92;;;;;;;11.34;90.17;100909.22;4923083;28;20577;-68
2021/10/05 02:38:05;;;;;;;7.30;2.08;;;;;;;11.29;90.64;100902.25;4924319;28;20055;-70
2021/10/05 02:40:58;;;;;;;6.85;2.17;;;;;;;11.29;90.31;100900.47;4924892;28;20148;-69
2021/10/05 02:43:26;;;;;;;5.40;1.95;;;;;;;11.22;90.91;100898.94;4924717;28;20154;-69
2021/10/05 02:45:54;;;;;;;5.53;2.30;;;;;;;11.23;90.96;100891.81;4927030;28;20618;-71
2021/10/05 02:48:22;;;;;;;8.27;2.20;;;;;;;11.21;90.91;100887.38;4925257;28;20051;-70
2021/10/05 02:50:50;;;;;;;4.55;1.95;;;;;;;11.22;90.87;100877.59;4924486;28;22377;-70
2021/10/05 02:53:18;;;;;;;3.78;2.05;;;;;;;11.18;90.93;100874.13;4922396;28;20043;-72
2021/10/05 02:55:47;;;;;;;4.35;1.90;;;;;;;11.25;90.61;100868.56;4925074;28;20607;-70
2021/10/05 02:58:17;;;;;;;4.50;2.17;;;;;;;11.19;90.94;100864.31;4924306;28;20099;-70
2021/10/05 03:00:45;;;;;;;3.95;2.10;;;;;;;11.12;91.12;100860.13;4925532;28;20059;-70
2021/10/05 03:03:14;;;;;;;5.93;2.10;;;;;;;11.08;91.45;100866.47;4917683;28;20543;-70
2021/10/05 03:05:41;;;;;;;7.65;1.95;;;;;;;11.07;91.52;100856.72;4922947;28;20106;-70
2021/10/05 03:08:09;;;;;;;5.05;1.92;;;;;;;11.01;91.86;100850.66;4924002;28;20524;-69
2021/10/05 03:10:37;;;;;;;5.70;1.98;;;;;;;11.02;91.78;100846.22;4925412;28;20139;-70
2021/10/05 03:13:06;;;;;;;5.38;2.20;;;;;;;10.95;92.11;100842.00;4919950;28;20060;-70
2021/10/05 03:15:35;;;;;;;4.13;2.00;;;;;;;10.93;92.10;100830.47;4925711;28;20090;-70
2021/10/05 03:18:03;;;;;;;5.03;2.17;;;;;;;10.88;92.45;100828.00;4928306;28;20053;-70
2021/10/05 03:20:31;;;;;;;4.45;1.92;;;;;;;10.86;92.42;100816.47;4925405;28;20056;-70
2021/10/05 03:22:59;;;;;;;5.78;1.90;;;;;;;10.88;92.29;100811.97;4928265;28;20733;-71
2021/10/05 03:25:27;;;;;;;7.85;2.33;;;;;;;10.83;92.41;100811.25;4921321;28;20089;-70
2021/10/05 03:27:55;;;;;;;4.93;2.35;;;;;;;10.84;92.57;100811.22;4928312;28;20070;-70
2021/10/05 03:30:24;;;;;;;5.63;2.30;;;;;;;10.83;92.46;100811.25;4924422;28;20036;-71
2021/10/05 03:32:54;;;;;;;7.57;2.47;;;;;;;10.85;92.11;100793.38;4924106;28;20062;-71
2021/10/05 03:35:23;;;;;;;3.70;2.00;;;;;;;10.87;92.10;100783.53;4926548;28;20054;-70
2021/10/05 03:38:15;;;;;;;5.45;2.17;;;;;;;10.81;92.46;100791.72;4925566;28;20148;-70
2021/10/05 03:40:43;;;;;;;4.80;2.17;;;;;;;10.78;92.68;100790.03;4926162;28;20051;-73
2021/10/05 03:43:11;;;;;;;7.00;2.17;;;;;;;10.78;92.74;100789.19;4923889;28;20311;-70
2021/10/05 03:45:38;;;;;;;5.88;1.90;;;;;;;10.75;92.72;100784.81;4922102;28;20062;-66
2021/10/05 03:48:08;;;;;;;5.82;2.08;;;;;;;10.70;93.10;100777.88;4930557;28;20059;-66
2021/10/05 03:50:36;;;;;;;5.00;2.00;;;;;;;10.68;93.27;100777.94;4923082;28;20145;-66
2021/10/05 03:53:29;;;;;;;6.93;2.63;;;;;;;10.58;93.80;100776.50;4924352;28;20059;-71
2021/10/05 03:55:59;;;;;;;8.05;1.90;;;;;;;10.65;93.51;100772.69;4920883;28;20472;-70
2021/10/05 03:58:28;;;;;;;5.57;2.15;;;;;;;10.64;93.68;100769.16;4924761;28;20061;-69
2021/10/05 04:00:56;;;;;;;7.28;2.30;;;;;;;10.61;93.80;100758.59;4924125;28;20572;-70
2021/10/05 04:03:25;;;;;;;7.20;2.13;;;;;;;10.57;94.04;100751.63;4923095;28;20063;-70
2021/10/05 04:05:53;;;;;;;4.63;1.95;;;;;;;10.57;93.92;100748.06;4926191;28;20585;-69
2021/10/05 04:08:21;;;;;;;3.67;2.10;;;;;;;10.58;94.46;100744.47;4922828;28;20131;-70
2021/10/05 04:10:49;;;;;;;5.82;2.17;;;;;;;10.57;94.33;100740.06;4922999;28;20048;-70
2021/10/05 04:13:17;;;;;;;8.38;2.13;;;;;;;10.59;94.24;100731.09;4919835;28;20142;-70
2021/10/05 04:15:45;;;;;;;7.38;2.30;;;;;;;10.62;93.97;100733.66;4923857;28;20323;-70
2021/10/05 04:18:14;;;;;;;4.40;2.10;;;;;;;10.63;94.14;100724.72;4928347;28;20146;-70
2021/10/05 04:20:43;;;;;;;7.10;2.40;;;;;;;10.55;94.62;100724.09;4918228;28;20142;-69
2021/10/05 04:23:11;;;;;;;6.45;2.35;;;;;;;10.54;94.65;100721.47;4925924;28;20109;-72
2021/10/05 04:25:42;;;;;;;6.97;2.20;;;;;;;10.55;94.77;100729.44;4919542;28;20079;-70
2021/10/05 04:28:10;;;;;;;3.90;2.10;;;;;;;10.53;95.05;100727.75;4924532;28;20056;-70
2021/10/05 04:30:38;;;;;;;6.15;2.03;;;;;;;10.56;94.90;100712.50;4924250;28;20053;-70
2021/10/05 04:33:06;;;;;;;5.35;1.92;;;;;;;10.53;94.83;100717.94;4923346;28;20202;-70
2021/10/05 04:35:34;;;;;;;6.25;2.05;;;;;;;10.54;95.17;100713.47;4924383;28;20058;-71
2021/10/05 04:38:03;;;;;;;5.68;2.17;;;;;;;10.58;95.06;100715.13;4919768;28;20070;-72
2021/10/05 04:40:32;;;;;;;7.20;2.63;;;;;;;10.55;95.33;100717.91;4923816;28;20102;-72
2021/10/05 04:43:00;;;;;;;5.50;1.92;;;;;;;10.55;95.38;100712.56;4927299;28;20134;-72
2021/10/05 04:45:28;;;;;;;7.78;2.13;;;;;;;10.53;95.68;100714.41;4922465;28;20321;-70
2021/10/05 04:47:56;;;;;;;6.25;2.30;;;;;;;10.50;95.86;100712.72;4927100;28;20095;-70
2021/10/05 04:50:24;;;;;;;6.35;2.42;;;;;;;10.54;95.77;100708.13;4922315;28;20547;-66
2021/10/05 04:52:52;;;;;;;5.97;2.35;;;;;;;10.47;96.17;100699.47;4923090;28;20062;-66
2021/10/05 04:55:22;;;;;;;5.38;2.17;;;;;;;10.49;96.36;100694.97;4925423;28;20098;-66
2021/10/05 04:57:50;;;;;;;7.43;2.40;;;;;;;10.47;96.38;100702.13;4922534;28;20503;-66
2021/10/05 05:00:18;;;;;;;6.70;2.95;;;;;;;10.47;96.50;100686.13;4927650;28;20051;-67
2021/10/05 05:03:10;;;;;;;2.75;1.80;;;;;;;10.53;96.61;100698.41;4926258;28;20094;-67
2021/10/05 05:05:38;;;;;;;6.55;2.30;;;;;;;10.52;96.50;100685.97;4925933;28;20044;-67
2021/10/05 05:08:06;;;;;;;6.43;2.10;;;;;;;10.48;96.87;100682.56;4920766;28;20055;-67
2021/10/05 05:10:35;;;;;;;5.00;2.40;;;;;;;10.42;97.38;100675.63;4923547;28;20444;-67
2021/10/05 05:13:03;;;;;;;6.00;2.30;;;;;;;10.43;97.30;100672.03;4922810;28;20687;-71
2021/10/05 05:15:31;;;;;;;4.93;2.15;;;;;;;10.45;97.31;100671.97;4922803;28;20055;-67
2021/10/05 05:17:59;;;;;;;4.38;2.22;;;;;;;10.49;97.19;100660.28;4922363;28;20105;-66
2021/10/05 05:20:27;;;;;;;4.15;2.13;;;;;;;10.43;97.45;100661.34;4920730;28;20094;-66
2021/10/05 05:22:55;;;;;;;13.65;2.55;;;;;;;10.39;97.60;100659.72;4922998;28;20095;-66
2021/10/05 05:25:23;;;;;;;6.03;2.80;;;;;;;10.40;97.85;100655.25;4923761;28;20158;-70
2021/10/05 05:27:53;;;;;;;6.68;2.20;;;;;;;10.34;98.22;100651.03;4917940;28;20181;-70
2021/10/05 05:30:20;;;;;;;8.27;2.63;;;;;;;10.46;97.59;100645.25;4926839;28;20415;-70
2021/10/05 05:32:52;;;;;;;5.20;2.10;;;;;;;10.42;97.69;100650.75;4917250;28;20253;-70
2021/10/05 05:35:21;;;;;;;5.00;1.95;;;;;;;10.35;97.96;100650.09;4924269;28;20061;-70
2021/10/05 05:37:49;;;;;;;3.97;2.20;;;;;;;10.33;98.04;100643.94;4921469;28;20055;-71
2021/10/05 05:40:17;;;;;;;5.38;2.60;;;;;;;10.29;98.52;100636.94;4922350;28;20086;-67
2021/10/05 05:42:45;;;;;;;5.50;2.22;;;;;;;10.28;98.40;100640.50;4925477;28;20117;-67
2021/10/05 05:45:15;;;;;;;4.85;2.40;;;;;;;10.32;98.30;100644.88;4920420;28;20275;-66
2021/10/05 05:47:43;;;;;;;5.28;2.17;;;;;;;10.33;98.22;100646.59;4923868;28;20174;-66
2021/10/05 05:50:11;;;;;;;5.30;2.00;;;;;;;10.25;98.73;100646.84;4918111;28;20051;-66
2021/10/05 05:52:38;;;;;;;5.45;2.30;;;;;;;10.34;98.13;100643.03;4921443;28;20373;-66
2021/10/05 05:55:08;;;;;;;4.35;2.20;;;;;;;10.26;98.59;100634.38;4925044;29;20440;-66
2021/10/05 05:57:36;;;;;;;5.43;2.15;;;;;;;10.25;98.67;100627.31;4918467;28;20062;-66
2021/10/05 06:00:05;;;;;;;4.45;2.28;;;;;;;10.25;98.64;100628.19;4923861;28;20487;-66
2021/10/05 06:02:34;;;;;;;3.67;2.33;;;;;;;10.33;98.19;100627.94;4922299;28;20055;-67
2021/10/05 06:05:02;;;;;;;4.93;2.47;;;;;;;10.26;98.35;100621.03;4924589;28;20062;-66
2021/10/05 06:07:31;;;;;;;6.57;2.63;;;;;;;10.30;98.74;100625.34;4928972;28;20064;-66
2021/10/05 06:09:58;;;;;;;5.25;2.25;;;;;;;10.27;98.46;100604.13;4920402;28;20516;-66
2021/10/05 06:12:37;;;;;;;3.25;2.22;;;;;;;10.27;98.39;100609.47;4921999;28;20138;-66
2021/10/05 06:15:06;;;;;;;6.10;2.70;;;;;;;10.28;98.39;100596.06;4924133;28;20169;-66
2021/10/05 06:17:39;;;;;;;4.07;2.00;;;;;;;10.25;98.65;100595.31;4924726;28;20138;-66
2021/10/05 06:20:09;;;;;;;6.70;2.13;;;;;;;10.29;98.47;100600.47;4922799;28;20432;-66
2021/10/05 06:23:01;;;;;;;4.93;2.38;;;;;;;10.34;98.43;100602.16;4926588;28;20082;-66
2021/10/05 06:25:31;;;;;;;3.95;2.30;;;;;;;10.36;98.28;100598.50;4923602;28;20058;-66
2021/10/05 06:28:00;;;;;;;3.03;2.08;;;;;;;10.29;98.57;100589.78;4919218;28;20066;-66
2021/10/05 06:30:29;;;;;;;5.85;2.53;;;;;;;10.38;98.55;100593.09;4922808;28;20603;-67
2021/10/05 06:32:59;;;;;;;4.95;2.40;;;;;;;10.39;98.42;100590.38;4923349;28;20159;-66
2021/10/05 06:35:30;;;;;;;4.18;2.40;;;;;;;10.43;98.36;100594.66;4921041;28;20149;-67
2021/10/05 06:37:59;;;;;;;8.45;2.75;;;;;;;10.48;98.20;100583.00;4924277;28;20046;-67
2021/10/05 06:40:29;;;;;;;4.55;2.50;;;;;;;10.51;98.40;100580.22;4919596;28;20411;-72
2021/10/05 06:42:57;;;;;;;4.90;2.10;;;;;;;10.54;98.31;100566.75;4920846;28;20166;-71
2021/10/05 06:45:25;;;;;;;7.40;2.55;;;;;;;10.57;98.07;100562.19;4921477;28;20136;-71
2021/10/05 06:47:53;;;;;;;5.53;2.40;;;;;;;10.63;97.91;100569.94;4921324;28;20559;-71
2021/10/05 06:50:25;;;;;;;10.18;3.20;;;;;;;10.66;97.89;100569.00;4923460;28;20477;-71
2021/10/05 06:52:54;;;;;;;4.80;2.22;;;;;;;10.68;97.90;100553.78;4916586;28;20396;-70
2021/10/05 06:55:22;;;;;;;5.68;2.35;;;;;;;10.73;97.75;100558.97;4926499;28;20056;-68
2021/10/05 06:57:50;;;;;;;6.47;2.00;;;;;;;10.78;97.49;100555.19;4921523;28;20227;-66
2021/10/05 07:00:18;;;;;;;4.90;2.47;;;;;;;10.82;97.38;100551.44;4920677;28;20098;-66
2021/10/05 07:02:48;;;;;;;6.38;2.05;;;;;;;10.87;97.14;100545.09;4926928;28;20474;-66
2021/10/05 07:05:17;;;;;;;5.70;2.25;;;;;;;10.94;96.94;100549.25;4924659;28;20047;-68
2021/10/05 07:07:49;;;;;;;10.07;2.25;;;;;;;10.98;96.88;100543.75;4923871;28;20066;-68
2021/10/05 07:10:18;;;;;;;4.50;2.15;;;;;;;11.00;96.57;100549.91;4919307;28;20723;-66
2021/10/05 07:13:10;;;;;;;5.75;2.15;;;;;;;11.12;96.45;100537.00;4918747;28;20567;-68
2021/10/05 07:15:38;;;;;;;5.10;2.22;;;;;;;11.16;96.03;100527.94;4925937;28;20083;-68
2021/10/05 07:18:06;;;;;;;4.47;2.10;;;;;;;11.25;95.55;100527.56;4924739;28;20339;-68
2021/10/05 07:20:33;;;;;;;6.35;2.38;;;;;;;11.35;95.47;100520.06;4923106;28;20110;-67
2021/10/05 07:23:03;;;;;;;8.80;2.80;;;;;;;11.34;95.66;100520.97;4922407;28;20411;-72
2021/10/05 07:25:56;;;;;;;5.65;1.92;;;;;;;11.37;95.55;100519.09;4922198;28;20062;-71
2021/10/05 07:28:24;;;;;;;6.88;2.70;;;;;;;11.46;95.17;100514.28;4921252;28;20635;-71
2021/10/05 07:30:51;;;;;;;12.73;2.55;;;;;;;11.48;95.08;100509.75;4926492;28;20051;-72
2021/10/05 07:33:39;;;;;;;6.55;2.42;;;;;;;11.54;94.73;100514.84;4923277;28;20138;-67
2021/10/05 07:36:07;;;;;;;8.18;2.80;;;;;;;11.54;94.87;100506.81;4928422;28;20280;-67
2021/10/05 07:38:37;;;;;;;6.70;2.40;;;;;;;11.68;94.25;100488.41;4921442;28;20052;-67
2021/10/05 07:41:05;;;;;;;6.15;2.25;;;;;;;11.75;93.70;100492.56;4921757;28;20141;-67
2021/10/05 07:43:33;;;;;;;5.45;2.05;;;;;;;11.86;93.05;100492.09;4920059;28;20059;-67
2021/10/05 07:46:02;;;;;;;5.85;2.70;;;;;;;11.98;92.80;100487.19;4921163;28;20463;-67
2021/10/05 07:48:30;;;;;;;4.55;2.22;;;;;;;12.13;91.70;100482.03;4921982;28;20051;-71
2021/10/05 07:50:58;;;;;;;6.78;2.05;;;;;;;12.32;91.21;100462.50;4922668;28;20123;-70
2021/10/05 07:53:26;;;;;;;5.70;2.30;;;;;;;12.43;90.49;100448.63;4915777;28;20298;-71
2021/10/05 07:55:55;;;;;;;5.68;2.10;;;;;;;12.44;89.82;100450.38;4916968;28;20066;-70
2021/10/05 07:58:23;;;;;;;6.25;2.15;;;;;;;12.62;89.62;100433.47;4918725;28;20051;-69
2021/10/05 08:00:51;;;;;;;6.85;2.63;;;;;;;12.78;88.31;100443.44;4924278;28;20058;-70
2021/10/05 08:03:19;;;;;;;4.15;2.10;;;;;;;12.89;87.85;100435.78;4923522;28;20047;-69
2021/10/05 08:05:47;;;;;;;5.38;2.17;;;;;;;12.92;86.74;100432.06;4920801;28;20051;-69
2021/10/05 08:08:15;;;;;;;6.93;2.20;;;;;;;12.97;86.91;100427.34;4917683;28;20564;-70
2021/10/05 08:10:43;;;;;;;10.57;2.45;;;;;;;13.21;86.49;100398.47;4920878;28;20059;-70
2021/10/05 08:13:12;;;;;;;5.97;2.50;;;;;;;13.44;85.71;100398.22;4915758;28;20138;-72
2021/10/05 08:15:40;;;;;;;4.78;2.13;;;;;;;13.44;85.10;100398.22;4922133;28;20198;-70
2021/10/05 08:18:08;;;;;;;4.28;1.90;;;;;;;13.62;84.96;100406.25;4924217;28;20467;-70
2021/10/05 08:20:36;;;;;;;7.22;2.22;;;;;;;13.73;83.96;100384.28;4915788;28;20177;-69
2021/10/05 08:23:04;;;;;;;2.22;1.83;;;;;;;14.06;83.35;100388.78;4920581;28;20051;-71
2021/10/05 08:25:55;;;;;;;6.22;2.10;;;;;;;14.00;82.69;100398.91;4919413;28;20269;-69
2021/10/05 08:28:26;;;;;;;4.85;2.47;;;;;;;14.30;81.01;100379.44;4924367;28;20055;-70
2021/10/05 08:30:54;;;;;;;4.38;2.05;;;;;;;14.33;80.45;100370.31;4920773;28;20059;-69
2021/10/05 08:33:22;;;;;;;3.63;1.77;;;;;;;14.48;80.22;100377.53;4926776;28;20273;-69
2021/10/05 08:35:50;;;;;;;4.07;1.65;;;;;;;14.71;80.47;100386.13;4919105;28;20082;-66
2021/10/05 08:38:18;;;;;;;5.07;2.05;;;;;;;14.07;80.73;100396.75;4917432;28;20550;-67
2021/10/05 08:40:46;;;;;;;6.45;2.22;;;;;;;13.99;82.51;100386.41;4921772;28;20173;-66
2021/10/05 08:43:15;;;;;;;3.90;1.80;;;;;;;13.82;82.76;100398.06;4920508;28;20056;-66
2021/10/05 08:45:45;;;;;;;6.47;2.13;;;;;;;13.74;83.61;100384.19;4922524;28;20055;-66
2021/10/05 08:48:15;;;;;;;5.63;2.03;;;;;;;13.69;83.58;100366.59;4920810;28;20142;-68
2021/10/05 08:50:44;;;;;;;6.50;2.00;;;;;;;13.75;84.00;100382.38;4916280;28;20082;-71
2021/10/05 08:53:12;;;;;;;5.78;1.90;;;;;;;13.63;84.16;100378.53;4911967;28;20052;-71
2021/10/05 08:55:45;;;;;;;5.40;2.05;;;;;;;13.67;84.34;100363.13;4921264;28;20827;-66
2021/10/05 08:58:13;;;;;;;6.90;2.00;;;;;;;13.66;84.05;100359.59;4924613;28;20106;-66
2021/10/05 09:00:41;;;;;;;4.78;1.85;;;;;;;13.70;84.12;100357.63;4922396;28;20306;-66
2021/10/05 09:03:10;;;;;;;5.45;1.70;;;;;;;13.77;83.95;100356.34;4922878;28;20609;-66
2021/10/05 09:05:40;;;;;;;5.68;2.00;;;;;;;13.80;84.37;100351.69;4920638;28;20062;-66
2021/10/05 09:08:08;;;;;;;2.42;1.70;;;;;;;13.79;83.95;100349.97;4918540;28;20629;-69
2021/10/05 09:10:36;;;;;;;3.72;1.73;;;;;;;13.85;84.12;100356.81;4925321;28;20055;-68
2021/10/05 09:13:04;;;;;;;6.60;1.92;;;;;;;13.88;83.70;100355.78;4916756;28;20058;-70
2021/10/05 09:15:33;;;;;;;4.50;2.05;;;;;;;13.94;84.31;100342.03;4922375;28;20070;-72
2021/10/05 09:18:01;;;;;;;6.43;1.83;;;;;;;13.94;83.49;100342.88;4921268;28;20062;-71
2021/10/05 09:20:35;;;;;;;3.75;1.90;;;;;;;13.93;83.81;100349.22;4920427;28;20724;-71
2021/10/05 09:23:06;;;;;;;6.95;2.00;;;;;;;13.87;83.84;100346.84;4925911;28;20129;-70
2021/10/05 09:25:37;;;;;;;6.95;2.30;;;;;;;14.03;83.67;100352.28;4918718;28;20122;-71
2021/10/05 09:28:17;;;;;;;3.45;1.77;;;;;;;14.01;83.30;100340.75;4923699;28;20256;-70
2021/10/05 09:30:56;;;;;;;4.70;1.67;;;;;;;14.10;83.72;100353.69;4916995;28;20431;-71
2021/10/05 09:33:25;;;;;;;4.97;2.08;;;;;;;14.00;83.68;100339.88;4921081;28;20058;-71
2021/10/05 09:35:54;;;;;;;6.03;2.17;;;;;;;14.11;83.79;100350.03;4927963;28;20494;-72
2021/10/05 09:38:23;;;;;;;6.05;2.15;;;;;;;14.23;82.85;100334.22;4923201;28;20189;-71
2021/10/05 09:41:03;;;;;;;5.10;1.77;;;;;;;14.49;82.79;100338.13;4926852;28;20216;-72
2021/10/05 09:43:32;;;;;;;4.35;2.05;;;;;;;14.52;82.09;100335.25;4922775;28;20043;-71
2021/10/05 09:46:12;;;;;;;5.63;2.00;;;;;;;14.56;82.29;100328.78;4923988;28;20093;-71
2021/10/05 09:48:40;;;;;;;6.60;1.83;;;;;;;14.52;81.10;100333.47;4920706;28;20063;-71
2021/10/05 09:51:22;;;;;;;5.07;2.35;;;;;;;14.51;81.56;100321.00;4926458;28;20573;-71
2021/10/05 09:53:51;;;;;;;7.20;2.03;;;;;;;14.69;81.13;100340.59;4919183;28;20154;-66
2021/10/05 09:56:20;;;;;;;5.20;2.10;;;;;;;14.65;81.21;100322.91;4917564;28;20688;-65
2021/10/05 09:58:49;;;;;;;4.45;2.05;;;;;;;14.81;81.00;100330.94;4927440;28;20058;-68
2021/10/05 10:01:19;;;;;;;6.05;2.35;;;;;;;14.61;81.05;100324.06;4922631;28;20064;-68
2021/10/05 10:03:49;;;;;;;6.20;1.80;;;;;;;14.71;80.70;100316.31;4927090;28;20047;-67
2021/10/05 10:06:20;;;;;;;8.85;2.00;;;;;;;14.80;80.66;100318.50;4927048;28;20074;-67
2021/10/05 10:08:53;;;;;;;4.45;1.85;;;;;;;14.75;81.49;100312.50;4924159;28;20547;-67
2021/10/05 10:11:22;;;;;;;3.35;2.00;;;;;;;14.74;80.33;100318.84;4923531;28;20241;-67
2021/10/05 10:13:50;;;;;;;5.05;2.25;;;;;;;14.55;81.40;100295.69;4919782;28;20102;-67
2021/10/05 10:16:18;;;;;;;3.25;2.05;;;;;;;14.63;81.20;100299.81;4923676;28;20149;-68
2021/10/05 10:18:51;;;;;;;5.30;2.20;;;;;;;14.57;80.71;100304.53;4920531;28;20051;-67
2021/10/05 10:21:27;;;;;;;7.18;2.13;;;;;;;14.62;81.60;100295.38;4922887;28;20043;-67
2021/10/05 10:24:13;;;;;;;7.55;2.00;;;;;;;14.54;81.16;100277.88;4921379;28;20056;-67
2021/10/05 10:26:45;;;;;;;6.10;2.17;;;;;;;14.59;82.00;100277.59;4926182;28;20146;-67
2021/10/05 10:29:33;;;;;;;4.88;2.03;;;;;;;14.67;83.18;100286.09;4926716;28;20058;-67
2021/10/05 10:32:10;;;;;;;6.80;1.92;;;;;;;14.62;83.43;100284.63;4917648;28;20143;-67
2021/10/05 10:34:38;;;;;;;4.95;2.10;;;;;;;14.52;83.72;100289.63;4925790;28;20135;-67
2021/10/05 10:37:16;;;;;;;6.53;2.40;;;;;;;14.54;84.30;100283.22;4916279;28;20559;-67
2021/10/05 10:39:46;;;;;;;4.30;2.13;;;;;;;14.74;83.84;100274.06;4927591;28;20051;-71
2021/10/05 10:42:26;;;;;;;5.15;2.10;;;;;;;14.70;83.79;100259.06;4929984;28;20048;-72
2021/10/05 10:44:54;;;;;;;5.35;2.20;;;;;;;14.85;82.52;100268.06;4926865;28;20055;-71
2021/10/05 10:47:24;;;;;;;4.00;2.00;;;;;;;15.00;81.94;100263.59;4920660;28;20194;-71
2021/10/05 10:49:57;;;;;;;9.00;2.20;;;;;;;14.92;82.62;100253.28;4922881;28;20244;-72
2021/10/05 10:52:32;;;;;;;5.57;2.33;;;;;;;14.67;83.37;100250.34;4926509;28;20340;-71
2021/10/05 10:55:00;;;;;;;4.32;2.35;;;;;;;14.71;84.42;100251.88;4921087;28;20149;-72
2021/10/05 10:57:37;;;;;;;7.03;2.53;;;;;;;14.79;83.99;100256.81;4924325;28;20798;-71
2021/10/05 11:00:11;;;;;;;5.10;2.38;;;;;;;14.57;85.24;100248.16;4918150;28;20405;-67
2021/10/05 11:02:42;;;;;;;6.32;2.10;;;;;;;14.55;86.50;100259.94;4926471;28;20050;-68
2021/10/05 11:05:11;;;;;;;4.90;2.33;;;;;;;14.44;86.91;100247.13;4920120;28;20319;-67
2021/10/05 11:07:40;;;;;;;3.60;2.22;;;;;;;14.28;88.18;100254.31;4929666;28;20138;-68
2021/10/05 11:10:09;;;;;;;5.43;2.20;;;;;;;14.19;89.45;100255.72;4924549;28;20051;-68
2021/10/05 11:12:48;;;;;;;4.78;2.58;;;;;;;13.97;91.08;100261.41;4919622;28;20126;-68
2021/10/05 11:15:16;;;;;;;6.65;2.47;;;;;;;13.75;93.43;100253.69;4925434;28;20051;-69
2021/10/05 11:17:45;;;;;;;6.55;2.40;;;;;;;13.54;96.31;100248.53;4926138;28;20094;-69
2021/10/05 11:20:13;;;;;;;6.80;2.47;;;;;;;13.44;96.77;100245.47;4920162;28;20850;-67
2021/10/05 11:22:42;;;;;;;5.43;2.88;;;;;;;13.44;97.90;100245.47;4923253;28;20056;-68
2021/10/05 11:25:18;;;;;;;6.70;3.00;;;;;;;13.26;99.97;100241.94;4923100;28;20047;-67
2021/10/05 11:27:47;;;;;;;10.55;3.10;;;;;;;13.22;100.00;100232.31;4923517;28;21755;-68
2021/10/05 11:30:14;;;;;;;5.05;2.47;;;;;;;13.27;100.00;100246.34;4922892;28;20693;-68
2021/10/05 11:32:42;;;;;;;6.82;2.72;;;;;;;13.20;100.00;100236.91;4920006;28;20059;-68
2021/10/05 11:35:10;;;;;;;7.57;2.70;;;;;;;13.23;100.00;100236.72;4922185;28;20161;-68
2021/10/05 11:37:38;;;;;;;4.03;2.10;;;;;;;13.20;100.00;100250.28;4923338;28;20177;-68